Littcarr, Kentucky
Current Conditions -  °F | °C
As of 12:15 PM on Sunday 23 Nov 2014 (Local Time) from KLNP Reporting Station
Overcast Overcast  
Wind Chill: 54°   Ceiling: 7500
Heat Index: 54°   Visibility: 10mi
Dew Point: 43°   Wind: 14mph
Humidity: 67%   Direction: 160°SSE
Pressure: 29.97"   Gusts: 23mph
Location:  37.25°N, 82.96°W
Report Text: KLNP 231715Z AUTO 16012G20KT 10SM OVC075 12/06 A2997 RMK AO2
Loading
Personal Weather Stations






























Interactive Weather Map New forecast layout! Learn more

10-Day Weather Forecast

Advertisements
Track Severe Weather on mobile